WS23 weather

R & S Landing Strip
Merrill, Wisconsin, United States

Public forecast

Using degrees Fahrenheit for public forecast. Weather courtesy of forecast.io.

Closest aviation weather report (METAR) to R & S Landing Strip

Closest report is Merrill Municipal Airport, 1.8 nm (3.3 km) SE. Retrieved 2020/02/18 06:35 UTC (0 seconds ago):

KRRL 180635Z AUTO 35003KT 1 1/2SM -SN OVC014 M02/M02 A2981 RMK AO2 P0002 T10221025 TSNO

Closest aviation forecast (TAF) to R & S Landing Strip

Closest forecast is Wausau Downtown Airport, 18.1 nm (33.6 km) SSE. Retrieved 2020/02/18 06:22 UTC (0 seconds ago):

TAF KAUW 180520Z 1806/1906 09004KT 2SM -SN OVC012 TEMPO 1806/1807 1SM -SN BR OVC006 FM180700 33009G16KT 3SM -SHSN BKN006 FM180900 31011G19KT P6SM BKN035